Terminal Aerodrome Forecast
Issued by NWS

Home | Current Version | Previous Version | Text Only | Print | Product List | Glossary On
Versions: 1 2 3 4 5 6 7 8 9 10 11 12 13 14 15 16 17 18 19 20 21 22 23 24 25
000
FTUS43 KLSX 291100
TAFSUS
TAF
KSUS 291135Z 2912/3012 VRB04KT 6SM BR SCT250
      TEMPO 2912/2914 4SM BR
     FM291500 18007KT P6SM SCT035 BKN120
     FM292100 18009KT P6SM VCTS SCT045CB BKN120
     FM300300 20006KT P6SM SCT040 BKN100 PROB30 3003/3007 5SM -TSRA
      BKN030CB
     FM300700 20005KT P6SM VCSH BKN080=

USA.gov is the U.S. government's official web portal to all federal, state and local government web resources and services.